Terminal Aerodrome Forecast
Issued by NWS

Home | Current Version | Previous Version | Text Only | Print | Product List | Glossary On
Versions: 1 2 3 4 5 6 7 8 9 10 11 12 13 14 15 16 17 18 19 20 21 22 23 24 25
000
FTUS41 KBGM 022000 AAA
TAFRME
TAF AMD
KRME 022007Z 0220/0318 28015G25KT 4SM -SHSN SCT015 OVC025
      TEMPO 0220/0222 2SM -SHSN OVC015
     FM022200 29012G22KT P6SM -SHSN SCT025 BKN040
     FM030000 30010KT P6SM BKN035
     FM030300 VRB03KT P6SM SCT035
     FM031500 12005KT P6SM OVC120=

USA.gov is the U.S. government's official web portal to all federal, state and local government web resources and services.